createdAt,value
2018-06-16T00:03:28.763Z,12.50
2018-06-16T00:08:31.366Z,12.60
2018-06-16T00:13:33.995Z,12.50
2018-06-16T00:18:36.595Z,12.50
2018-06-16T00:23:39.293Z,12.40
2018-06-16T00:28:41.914Z,12.40
2018-06-16T00:33:45.262Z,12.40
2018-06-16T00:38:47.875Z,12.50
2018-06-16T00:43:50.491Z,12.40
2018-06-16T00:48:53.190Z,12.30
2018-06-16T00:53:55.955Z,12.30
2018-06-16T00:58:58.579Z,12.30
2018-06-16T01:04:01.195Z,12.20
2018-06-16T01:09:05.778Z,12.20
2018-06-16T01:14:08.468Z,12.20
2018-06-16T01:19:11.118Z,12.10
2018-06-16T01:29:16.270Z,11.90
2018-06-16T01:34:18.882Z,11.90
2018-06-16T01:39:21.501Z,11.90
2018-06-16T01:44:24.119Z,11.90
2018-06-16T01:49:26.810Z,12.00
2018-06-16T01:54:29.496Z,12.10
2018-06-16T01:59:32.171Z,12.10
2018-06-16T02:04:34.762Z,12.00
2018-06-16T02:09:37.367Z,11.90
2018-06-16T02:14:40.054Z,11.70
2018-06-16T02:19:42.815Z,11.50
2018-06-16T02:24:45.427Z,11.40
2018-06-16T02:29:48.063Z,11.30
2018-06-16T02:34:50.675Z,11.20
2018-06-16T02:39:53.283Z,11.10
2018-06-16T02:44:55.879Z,11.00
2018-06-16T02:49:58.475Z,10.90
2018-06-16T02:55:01.085Z,10.70
2018-06-16T03:00:03.831Z,10.60
2018-06-16T03:05:06.574Z,10.60
2018-06-16T03:10:09.783Z,10.50
2018-06-16T03:15:12.379Z,10.40
2018-06-16T03:20:15.008Z,10.30
2018-06-16T03:25:17.612Z,10.30
2018-06-16T03:30:20.618Z,10.40
2018-06-16T03:35:23.269Z,10.40
2018-06-16T03:40:25.897Z,10.40
2018-06-16T03:45:28.502Z,10.40
2018-06-16T03:50:31.230Z,10.40
2018-06-16T03:55:33.850Z,10.40
2018-06-16T04:00:36.469Z,10.40
2018-06-16T04:05:39.064Z,10.50
2018-06-16T04:10:41.655Z,10.70
2018-06-16T04:15:44.404Z,10.90
2018-06-16T04:20:47.009Z,11.00
2018-06-16T04:25:49.625Z,11.10
2018-06-16T04:30:52.265Z,11.10
2018-06-16T04:35:54.889Z,11.30
2018-06-16T04:40:57.515Z,11.40
2018-06-16T04:46:00.167Z,11.60
2018-06-16T04:51:02.779Z,11.70
2018-06-16T04:56:05.447Z,12.00
2018-06-16T05:01:08.078Z,12.30
2018-06-16T05:06:10.683Z,12.50
2018-06-16T05:11:13.305Z,12.60
2018-06-16T05:16:16.494Z,12.80
2018-06-16T05:21:19.090Z,13.00
2018-06-16T05:26:21.820Z,13.10
2018-06-16T05:31:24.536Z,13.30
2018-06-16T05:36:27.309Z,13.50
2018-06-16T05:41:29.974Z,13.60
2018-06-16T05:46:32.607Z,13.80
2018-06-16T05:51:35.244Z,14.10
2018-06-16T05:56:37.859Z,14.30
2018-06-16T06:01:40.568Z,14.50
2018-06-16T06:06:43.191Z,14.70
2018-06-16T06:11:45.807Z,14.90
2018-06-16T06:16:48.447Z,15.10
2018-06-16T06:21:51.155Z,15.40
2018-06-16T06:26:53.794Z,15.60
2018-06-16T06:31:56.715Z,15.80
2018-06-16T06:36:59.451Z,16.00
2018-06-16T06:42:02.079Z,16.30
2018-06-16T06:47:04.846Z,16.60
2018-06-16T06:52:07.575Z,16.80
2018-06-16T06:57:10.379Z,17.10
2018-06-16T07:02:14.335Z,17.20
2018-06-16T07:07:16.943Z,17.60
2018-06-16T07:12:19.614Z,17.70
2018-06-16T07:17:22.239Z,18.10
2018-06-16T07:22:24.937Z,18.40
2018-06-16T07:27:27.535Z,18.70
2018-06-16T07:32:30.147Z,18.90
2018-06-16T07:37:33.623Z,19.10
2018-06-16T07:42:36.463Z,19.20
2018-06-16T07:47:39.070Z,19.40
2018-06-16T07:52:41.749Z,19.70
2018-06-16T07:57:44.364Z,20.00
2018-06-16T08:02:47.042Z,20.20
2018-06-16T08:12:52.250Z,20.80
2018-06-16T08:17:54.870Z,21.20
2018-06-16T08:22:57.481Z,21.20
2018-06-16T08:28:00.088Z,21.60
2018-06-16T08:33:02.779Z,21.90
2018-06-16T08:38:06.079Z,22.30
2018-06-16T08:43:08.887Z,22.60
2018-06-16T08:48:11.723Z,23.00
2018-06-16T08:53:14.373Z,23.20
2018-06-16T08:58:16.997Z,23.40
2018-06-16T09:03:19.628Z,23.60
2018-06-16T09:08:22.241Z,24.00
2018-06-16T09:18:27.411Z,24.40
2018-06-16T09:23:31.599Z,24.00
2018-06-16T09:28:34.455Z,23.90
2018-06-16T09:33:42.128Z,24.00
2018-06-16T09:38:45.056Z,24.50
2018-06-16T09:43:47.802Z,25.40
2018-06-16T09:48:50.417Z,26.40
2018-06-16T09:53:53.350Z,27.00
2018-06-16T09:58:55.966Z,27.10
2018-06-16T10:09:01.412Z,28.30
2018-06-16T10:14:04.062Z,29.40
2018-06-16T10:19:06.732Z,29.80
2018-06-16T10:24:09.344Z,30.00
2018-06-16T10:29:12.027Z,29.90
2018-06-16T10:34:14.619Z,30.40
2018-06-16T10:39:17.292Z,27.70
2018-06-16T10:44:19.932Z,30.40
2018-06-16T10:49:22.612Z,30.60
2018-06-16T10:59:27.820Z,30.80
2018-06-16T11:04:30.896Z,31.70
2018-06-16T11:09:33.539Z,30.30
2018-06-16T11:14:36.179Z,30.80
2018-06-16T11:19:38.937Z,30.70
2018-06-16T11:24:41.617Z,31.20
2018-06-16T11:29:44.712Z,29.90
2018-06-16T11:34:47.318Z,29.60
2018-06-16T11:39:49.942Z,31.90
2018-06-16T11:44:52.554Z,33.00
2018-06-16T11:49:55.205Z,35.20
2018-06-16T11:54:57.810Z,36.50
2018-06-16T12:00:00.408Z,36.60
2018-06-16T12:05:03.135Z,36.70
2018-06-16T12:10:05.954Z,38.10
2018-06-16T12:15:08.684Z,37.00
2018-06-16T12:20:11.459Z,36.50
2018-06-16T12:25:14.112Z,37.70
2018-06-16T12:30:16.794Z,37.60
2018-06-16T12:35:19.440Z,37.70
2018-06-16T12:40:22.084Z,37.40
2018-06-16T12:45:24.764Z,38.60
2018-06-16T12:50:27.535Z,39.80
2018-06-16T12:55:30.162Z,40.10
2018-06-16T13:00:32.793Z,39.70
2018-06-16T13:05:35.572Z,39.50
2018-06-16T13:10:38.174Z,39.00
2018-06-16T13:15:40.810Z,38.10
2018-06-16T13:20:43.427Z,38.50
2018-06-16T13:25:46.042Z,38.50
2018-06-16T13:30:48.681Z,40.70
2018-06-16T13:35:51.347Z,41.50
2018-06-16T13:40:53.943Z,40.70
2018-06-16T13:45:56.540Z,40.30
2018-06-16T13:50:59.227Z,41.00
2018-06-16T13:56:01.857Z,42.10
2018-06-16T14:01:04.607Z,42.10
2018-06-16T14:06:07.232Z,40.00
2018-06-16T14:11:09.904Z,37.90
2018-06-16T14:16:12.571Z,37.10
2018-06-16T14:21:15.179Z,37.90
2018-06-16T14:26:17.789Z,36.80
2018-06-16T14:31:20.602Z,35.60
2018-06-16T14:36:23.464Z,35.90
2018-06-16T14:41:26.150Z,34.80
2018-06-16T14:46:29.852Z,34.30
2018-06-16T14:51:32.504Z,34.20
2018-06-16T14:56:35.139Z,34.00
2018-06-16T15:01:37.790Z,32.60
2018-06-16T15:06:40.515Z,33.00
2018-06-16T15:11:43.206Z,33.50
2018-06-16T15:16:45.815Z,33.70
2018-06-16T15:21:49.523Z,32.30
2018-06-16T15:26:52.697Z,31.30
2018-06-16T15:36:58.221Z,29.90
2018-06-16T15:42:00.852Z,29.40
2018-06-16T15:47:03.514Z,28.90
2018-06-16T15:52:06.194Z,29.60
2018-06-16T15:57:10.315Z,31.40
2018-06-16T16:07:15.488Z,32.10
2018-06-16T16:12:18.159Z,32.30
2018-06-16T16:17:20.902Z,32.90
2018-06-16T16:22:23.536Z,33.00
2018-06-16T16:27:26.263Z,35.20
2018-06-16T16:32:28.894Z,37.40
2018-06-16T16:37:31.655Z,37.60
2018-06-16T16:42:34.310Z,37.70
2018-06-16T16:47:36.930Z,37.80
2018-06-16T16:52:39.571Z,38.10
2018-06-16T16:57:42.190Z,37.40
2018-06-16T17:02:44.847Z,36.70
2018-06-16T17:07:47.490Z,35.80
2018-06-16T17:12:50.103Z,35.50
2018-06-16T17:17:52.715Z,34.70
2018-06-16T17:22:55.323Z,33.30
2018-06-16T17:27:58.020Z,32.20
2018-06-16T17:33:00.731Z,30.90
2018-06-16T17:38:03.382Z,29.70
2018-06-16T17:43:06.111Z,28.80
2018-06-16T17:48:08.747Z,28.40
2018-06-16T17:53:11.458Z,28.80
2018-06-16T17:58:14.117Z,28.90
2018-06-16T18:08:19.314Z,27.00
2018-06-16T18:13:21.958Z,27.10
2018-06-16T18:18:24.606Z,26.30
2018-06-16T18:23:27.306Z,25.50
2018-06-16T18:28:29.924Z,24.90
2018-06-16T18:33:32.541Z,24.20
2018-06-16T18:38:35.227Z,23.40
2018-06-16T18:43:37.848Z,22.90
2018-06-16T18:48:40.513Z,22.40
2018-06-16T18:53:43.156Z,22.00
2018-06-16T18:58:45.816Z,21.60
2018-06-16T19:03:48.475Z,21.30
2018-06-16T19:08:51.132Z,21.00
2018-06-16T19:13:53.759Z,20.80
2018-06-16T19:18:57.503Z,20.60
2018-06-16T19:24:00.248Z,20.30
2018-06-16T19:29:03.079Z,20.20
2018-06-16T19:34:05.725Z,20.10
2018-06-16T19:39:10.210Z,20.00
2018-06-16T19:44:12.951Z,19.90
2018-06-16T19:49:15.667Z,19.80
2018-06-16T19:54:18.275Z,19.70
2018-06-16T19:59:20.898Z,19.40
2018-06-16T20:04:23.514Z,19.20
2018-06-16T20:09:26.131Z,19.00
2018-06-16T20:14:28.752Z,18.90
2018-06-16T20:19:31.370Z,18.70
2018-06-16T20:24:33.979Z,18.60
2018-06-16T20:29:36.717Z,18.40
2018-06-16T20:34:39.271Z,18.30
2018-06-16T20:39:42.650Z,18.20
2018-06-16T20:44:45.641Z,18.00
2018-06-16T20:49:48.322Z,18.20
2018-06-16T20:54:51.261Z,18.20
2018-06-16T20:59:53.967Z,18.20
2018-06-16T21:04:56.618Z,18.20
2018-06-16T21:09:59.284Z,18.20
2018-06-16T21:15:01.999Z,18.30
2018-06-16T21:20:04.698Z,18.30
2018-06-16T21:25:07.339Z,18.30
2018-06-16T21:30:09.983Z,18.20
2018-06-16T21:35:12.610Z,18.20
2018-06-16T21:40:15.346Z,18.20
2018-06-16T21:45:18.714Z,18.10
2018-06-16T21:50:21.383Z,18.00
2018-06-16T21:55:23.955Z,17.90
2018-06-16T22:00:31.231Z,17.80
2018-06-16T22:05:34.033Z,17.80
2018-06-16T22:10:36.876Z,17.90
2018-06-16T22:15:39.551Z,17.80
2018-06-16T22:20:42.253Z,17.80
2018-06-16T22:25:44.924Z,17.70
2018-06-16T22:30:47.574Z,17.60
2018-06-16T22:35:50.559Z,17.50
2018-06-16T22:40:53.211Z,17.40
2018-06-16T22:45:55.863Z,17.40
2018-06-16T22:50:58.499Z,17.50
2018-06-16T22:56:01.115Z,17.40
2018-06-16T23:01:03.785Z,17.40
2018-06-16T23:06:06.434Z,17.40
2018-06-16T23:11:09.047Z,17.30
2018-06-16T23:16:11.703Z,17.20
2018-06-16T23:21:14.308Z,17.00
2018-06-16T23:26:17.003Z,16.90
2018-06-16T23:31:19.591Z,16.90
2018-06-16T23:36:22.227Z,16.80
2018-06-16T23:41:24.834Z,16.80
2018-06-16T23:46:27.452Z,16.80
2018-06-16T23:51:30.060Z,16.80
2018-06-16T23:56:32.655Z,16.80
